createdAt,value
2019-01-31T00:01:56.497Z,12.46
2019-01-31T00:07:51.456Z,13.43
2019-01-31T00:13:46.475Z,13.5
2019-01-31T00:19:41.476Z,14.57
2019-01-31T00:25:36.458Z,13.43
2019-01-31T00:31:31.475Z,13.75
2019-01-31T00:37:26.484Z,13.63
2019-01-31T00:43:21.508Z,13.37
2019-01-31T00:49:16.560Z,13.86
2019-01-31T00:55:11.521Z,12.5
2019-01-31T01:01:06.499Z,11.68
2019-01-31T01:07:01.530Z,13.78
2019-01-31T01:12:56.501Z,11.53
2019-01-31T01:18:51.800Z,14.35
2019-01-31T01:24:46.513Z,14.28
2019-01-31T01:30:41.510Z,11.66
2019-01-31T01:36:36.506Z,11
2019-01-31T01:42:31.537Z,9.93
2019-01-31T01:48:26.572Z,8.39
2019-01-31T01:54:21.533Z,7.64
2019-01-31T02:00:16.552Z,7.63
2019-01-31T02:06:11.556Z,7.38
2019-01-31T02:12:06.578Z,7.18
2019-01-31T02:18:01.547Z,7.5
2019-01-31T02:23:56.549Z,7
2019-01-31T02:29:51.869Z,7.22
2019-01-31T02:35:46.547Z,7.28
2019-01-31T02:41:41.562Z,6.66
2019-01-31T02:47:36.544Z,5.76
2019-01-31T02:53:31.565Z,5.83
2019-01-31T02:59:26.574Z,6.69
2019-01-31T03:05:21.583Z,6.41
2019-01-31T03:11:16.564Z,6.23
2019-01-31T03:17:11.572Z,6.7
2019-01-31T03:23:06.604Z,8.06
2019-01-31T03:29:01.649Z,9.42
2019-01-31T03:34:56.599Z,8.74
2019-01-31T03:40:52.003Z,10.19
2019-01-31T03:46:46.660Z,9.06
2019-01-31T03:52:41.597Z,8.99
2019-01-31T03:58:36.591Z,9.25
2019-01-31T04:04:31.592Z,9.1
2019-01-31T04:10:26.628Z,8.88
2019-01-31T04:16:21.681Z,8.65
2019-01-31T04:22:16.670Z,9.06
2019-01-31T04:28:11.620Z,9
2019-01-31T04:34:06.627Z,8.69
2019-01-31T04:40:01.627Z,9.88
2019-01-31T04:45:56.637Z,8.41
2019-01-31T04:51:51.955Z,7.87
2019-01-31T04:57:46.620Z,8.17
2019-01-31T05:03:41.678Z,9.37
2019-01-31T05:09:36.621Z,7.43
2019-01-31T05:15:31.624Z,6.96
2019-01-31T05:21:26.678Z,7.33
2019-01-31T05:27:21.644Z,6.89
2019-01-31T05:33:16.738Z,6.73
2019-01-31T05:39:11.661Z,8.76
2019-01-31T05:45:06.654Z,7.22
2019-01-31T05:51:01.669Z,7.1
2019-01-31T05:56:56.673Z,7.31
2019-01-31T06:02:52.068Z,7.9
2019-01-31T06:08:46.682Z,7.26
2019-01-31T06:14:41.699Z,7.14
2019-01-31T06:20:36.692Z,6.54
2019-01-31T06:26:31.667Z,7.13
2019-01-31T06:32:26.688Z,7.35
2019-01-31T06:38:21.680Z,7.79
2019-01-31T06:44:16.682Z,8.24
2019-01-31T06:50:11.749Z,7.33
2019-01-31T06:56:06.701Z,8.1
2019-01-31T07:02:01.697Z,7.45
2019-01-31T07:07:56.996Z,8.13
2019-01-31T07:13:51.979Z,8.16
2019-01-31T07:19:46.712Z,8.55
2019-01-31T07:25:41.782Z,9.17
2019-01-31T07:31:36.691Z,6.88
2019-01-31T07:37:31.750Z,8.88
2019-01-31T07:43:26.750Z,7.36
2019-01-31T07:49:21.713Z,8.79
2019-01-31T07:55:16.709Z,6.58
2019-01-31T08:01:11.885Z,7.27
2019-01-31T08:07:06.732Z,6.3
2019-01-31T08:13:01.764Z,6.85
2019-01-31T08:18:57.038Z,7.36
2019-01-31T08:24:51.776Z,6.91
2019-01-31T08:30:46.756Z,6.91
2019-01-31T08:36:41.726Z,6.25
2019-01-31T08:42:36.750Z,5.92
2019-01-31T08:48:31.745Z,6.83
2019-01-31T08:54:26.812Z,7.07
2019-01-31T09:00:21.779Z,7.59
2019-01-31T09:06:16.758Z,5.86
2019-01-31T09:12:15.140Z,6.03
2019-01-31T09:18:06.763Z,5.1
2019-01-31T09:24:01.780Z,6.46
2019-01-31T09:29:56.792Z,7.5
2019-01-31T09:35:51.783Z,13.4
2019-01-31T09:41:46.785Z,6.09
2019-01-31T09:47:41.804Z,8.23
2019-01-31T09:53:36.781Z,10.35
2019-01-31T09:59:31.785Z,7.13
2019-01-31T10:05:26.804Z,7.01
2019-01-31T10:11:21.853Z,7.33
2019-01-31T10:17:16.811Z,7.2
2019-01-31T10:23:11.813Z,6.26
2019-01-31T10:29:06.783Z,7.01
2019-01-31T10:35:01.868Z,7.07
2019-01-31T10:40:57.180Z,7.56
2019-01-31T10:46:51.839Z,7.5
2019-01-31T10:52:46.866Z,6.38
2019-01-31T10:58:41.848Z,5.75
2019-01-31T11:04:36.830Z,5.95
2019-01-31T11:10:31.848Z,6.07
2019-01-31T11:16:26.840Z,6.25
2019-01-31T11:22:21.870Z,6.81
2019-01-31T11:28:16.866Z,6.69
2019-01-31T11:34:11.852Z,9.6
2019-01-31T11:40:06.853Z,6.99
2019-01-31T11:46:01.847Z,6.38
2019-01-31T11:51:57.178Z,5.61
2019-01-31T11:57:51.897Z,5.5
2019-01-31T12:03:46.876Z,5.48
2019-01-31T12:09:41.865Z,6.26
2019-01-31T12:15:36.864Z,6.99
2019-01-31T12:21:31.852Z,5.76
2019-01-31T12:27:26.839Z,4.83
2019-01-31T12:33:21.888Z,4.08
2019-01-31T12:39:16.911Z,4.14
2019-01-31T12:45:11.872Z,3.48
2019-01-31T12:51:06.870Z,4.22
2019-01-31T12:57:02.330Z,4.55
2019-01-31T13:02:57.231Z,4.82
2019-01-31T13:08:51.912Z,3.59
2019-01-31T13:14:46.938Z,3.41
2019-01-31T13:20:41.913Z,4.79
2019-01-31T13:26:36.924Z,4.1
2019-01-31T13:32:31.957Z,3.5
2019-01-31T13:38:26.907Z,3.53
2019-01-31T13:44:21.901Z,3.04
2019-01-31T13:50:16.908Z,4.55
2019-01-31T13:56:11.942Z,5.55
2019-01-31T14:02:09.256Z,3.4
2019-01-31T14:08:01.945Z,4.54
2019-01-31T14:14:07.945Z,4.73
2019-01-31T14:19:51.928Z,3.49
2019-01-31T14:25:46.958Z,4.24
2019-01-31T14:31:41.951Z,3.79
2019-01-31T14:37:36.936Z,6.55
2019-01-31T14:43:31.965Z,5.01
2019-01-31T14:49:27.014Z,4.2
2019-01-31T14:55:21.958Z,5.57
2019-01-31T15:01:16.992Z,5.02
2019-01-31T15:07:12.021Z,5.3
2019-01-31T15:13:07.026Z,5.45
2019-01-31T15:19:02.266Z,4.93
2019-01-31T15:24:57.265Z,4.31
2019-01-31T15:30:51.981Z,4.75
2019-01-31T15:36:46.971Z,4.67
2019-01-31T15:42:41.996Z,4.93
2019-01-31T15:48:37.016Z,4.55
2019-01-31T15:54:32.002Z,4.69
2019-01-31T16:00:27.039Z,5.28
2019-01-31T16:06:22.003Z,5.22
2019-01-31T16:12:17.037Z,6.69
2019-01-31T16:18:12.130Z,4.92
2019-01-31T16:24:06.999Z,4.57
2019-01-31T16:30:02.010Z,3.99
2019-01-31T16:35:57.377Z,4.23
2019-01-31T16:41:52.017Z,4.5
2019-01-31T16:47:47.047Z,4.78
2019-01-31T16:53:42.015Z,5.41
2019-01-31T16:59:37.011Z,5.24
2019-01-31T17:05:32.024Z,5.91
2019-01-31T17:11:27.016Z,5.94
2019-01-31T17:17:22.038Z,7.72
2019-01-31T17:23:17.046Z,5.73
2019-01-31T17:29:12.039Z,7.4
2019-01-31T17:35:07.042Z,13.91
2019-01-31T17:41:02.108Z,8.88
2019-01-31T17:46:57.044Z,9.99
2019-01-31T17:52:52.049Z,9.45
2019-01-31T17:58:47.053Z,7.91
2019-01-31T18:04:42.047Z,13.37
2019-01-31T18:10:37.059Z,13.26
2019-01-31T18:16:32.053Z,13.62
2019-01-31T18:22:27.075Z,11.96
2019-01-31T18:28:22.070Z,10.84
2019-01-31T18:34:17.076Z,10.25
2019-01-31T18:40:12.085Z,7.93
2019-01-31T18:46:07.050Z,9.31
2019-01-31T18:52:02.154Z,10.82
2019-01-31T18:57:57.368Z,8.9
2019-01-31T19:03:52.095Z,9.73
2019-01-31T19:09:47.111Z,8.39
2019-01-31T19:15:42.104Z,14.57
2019-01-31T19:21:37.089Z,9.84
2019-01-31T19:27:32.098Z,8.65
2019-01-31T19:33:27.286Z,8.98
2019-01-31T19:39:22.085Z,7.51
2019-01-31T19:45:17.116Z,8.36
2019-01-31T19:51:12.130Z,7.28
2019-01-31T19:57:07.138Z,7.16
2019-01-31T20:03:02.124Z,6.73
2019-01-31T20:08:57.126Z,8.03
2019-01-31T20:14:52.153Z,10.08
2019-01-31T20:20:47.124Z,10.38
2019-01-31T20:26:42.152Z,9.61
2019-01-31T20:32:37.131Z,11.46
2019-01-31T20:38:32.145Z,13
2019-01-31T20:44:27.150Z,12.42
2019-01-31T20:50:22.150Z,21.19
2019-01-31T20:56:17.151Z,13.26
2019-01-31T21:02:12.133Z,9.88
2019-01-31T21:08:07.158Z,9.06
2019-01-31T21:14:02.354Z,9.14
2019-01-31T21:19:57.182Z,8.63
2019-01-31T21:25:52.214Z,8.88
2019-01-31T21:31:47.283Z,8.72
2019-01-31T21:37:42.153Z,9.28
2019-01-31T21:43:37.202Z,11.23
2019-01-31T21:49:32.194Z,16.85
2019-01-31T21:55:27.164Z,14.08
2019-01-31T22:01:22.210Z,13.61
2019-01-31T22:07:17.279Z,13.83
2019-01-31T22:13:12.194Z,13.2
2019-01-31T22:19:07.252Z,12.33
2019-01-31T22:25:02.241Z,13.03
2019-01-31T22:30:57.280Z,12.63
2019-01-31T22:36:52.233Z,11.65
2019-01-31T22:42:47.221Z,12.09
2019-01-31T22:48:42.277Z,12.03
2019-01-31T22:54:37.205Z,12.82
2019-01-31T23:00:32.211Z,13.01
2019-01-31T23:06:27.220Z,13.85
2019-01-31T23:12:22.260Z,14.4
2019-01-31T23:18:17.279Z,15.2
2019-01-31T23:24:12.259Z,15.3
2019-01-31T23:30:07.219Z,15.71
2019-01-31T23:36:02.257Z,17.3
2019-01-31T23:41:57.382Z,15.86
2019-01-31T23:47:52.259Z,14.47
2019-01-31T23:53:47.309Z,14.48
2019-01-31T23:59:42.315Z,11.58
